createdAt,value
2017-11-16T00:01:25.331Z,601.10
2017-11-16T00:03:53.309Z,616.77
2017-11-16T00:06:21.463Z,591.40
2017-11-16T00:08:49.441Z,573.17
2017-11-16T00:11:17.419Z,594.40
2017-11-16T00:13:45.395Z,576.48
2017-11-16T00:16:13.427Z,580.98
2017-11-16T00:18:41.397Z,603.33
2017-11-16T00:21:09.662Z,599.62
2017-11-16T00:23:37.652Z,614.80
2017-11-16T00:26:05.657Z,603.98
2017-11-16T00:28:33.665Z,619.55
2017-11-16T00:31:01.654Z,602.28
2017-11-16T00:33:29.625Z,585.08
2017-11-16T00:35:57.933Z,588.92
2017-11-16T00:48:09.434Z,672.65
2017-11-16T00:50:38.522Z,640.42
2017-11-16T00:53:07.740Z,628.25
2017-11-16T00:55:37.245Z,625.17
2017-11-16T00:58:06.418Z,651.70
2017-11-16T01:00:35.557Z,655.63
2017-11-16T01:03:04.699Z,672.20
2017-11-16T01:05:33.942Z,663.20
2017-11-16T01:08:03.291Z,650.12
2017-11-16T01:10:32.405Z,647.10
2017-11-16T01:13:01.756Z,660.58
2017-11-16T01:17:59.418Z,730.30
2017-11-16T01:20:28.509Z,720.83
2017-11-16T01:22:57.513Z,691.80
2017-11-16T01:25:26.714Z,714.00
2017-11-16T01:27:57.310Z,675.15
2017-11-16T01:30:26.440Z,679.98
2017-11-16T01:32:55.516Z,679.05
2017-11-16T01:35:24.527Z,648.75
2017-11-16T01:37:53.720Z,695.73
2017-11-16T01:40:23.741Z,757.83
2017-11-16T01:42:53.255Z,718.02
2017-11-16T01:45:22.428Z,706.08
2017-11-16T01:47:51.549Z,722.63
2017-11-16T01:50:20.670Z,702.25
2017-11-16T01:52:49.935Z,725.08
2017-11-16T01:55:19.277Z,724.48
2017-11-16T01:57:48.408Z,731.27
2017-11-16T02:00:17.657Z,730.10
2017-11-16T02:02:50.938Z,727.60
2017-11-16T02:05:20.291Z,713.45
2017-11-16T02:07:49.443Z,701.25
2017-11-16T02:10:18.528Z,697.10
2017-11-16T02:12:47.543Z,681.87
2017-11-16T02:15:16.666Z,686.12
2017-11-16T02:17:46.255Z,659.80
2017-11-16T02:20:15.445Z,669.47
2017-11-16T02:22:44.596Z,652.65
2017-11-16T02:25:14.433Z,649.60
2017-11-16T02:27:43.636Z,650.00
2017-11-16T02:30:13.381Z,681.45
2017-11-16T02:32:42.529Z,702.28
2017-11-16T02:35:12.029Z,687.08
2017-11-16T02:37:41.620Z,691.88
2017-11-16T02:40:11.242Z,673.95
2017-11-16T02:42:40.435Z,673.92
2017-11-16T02:45:09.692Z,775.58
2017-11-16T02:47:39.275Z,782.65
2017-11-16T18:25:43.317Z,300.40
2017-11-16T18:29:24.808Z,325.77
2017-11-16T18:31:54.079Z,407.40
2017-11-16T18:34:24.275Z,526.80
2017-11-16T18:36:53.414Z,524.08
2017-11-16T18:40:31.591Z,479.83
2017-11-16T18:43:00.564Z,439.37
2017-11-16T18:49:01.770Z,394.40
2017-11-16T18:51:30.797Z,420.07
2017-11-16T19:14:16.120Z,448.87
2017-11-16T19:16:45.099Z,444.90
2017-11-16T19:19:14.164Z,429.60
2017-11-16T19:21:43.226Z,438.87
2017-11-16T21:32:58.422Z,690.75
2017-11-16T21:52:47.307Z,738.45
2017-11-16T21:55:16.493Z,717.22
2017-11-16T21:57:45.841Z,684.42
2017-11-16T22:00:15.504Z,693.08
2017-11-16T22:02:44.848Z,669.28
2017-11-16T22:05:14.315Z,640.45
2017-11-16T22:07:43.628Z,683.92
2017-11-16T22:10:13.258Z,706.02
2017-11-16T22:12:42.480Z,785.33
2017-11-16T22:15:11.604Z,843.25
2017-11-16T22:17:41.847Z,817.05
2017-11-16T22:20:11.305Z,790.38
2017-11-16T22:22:40.651Z,788.87
2017-11-16T22:25:09.966Z,758.30
2017-11-16T22:27:39.302Z,723.52
2017-11-16T22:30:08.558Z,715.80
2017-11-16T22:32:39.752Z,724.40
2017-11-16T22:35:09.316Z,676.73
2017-11-16T22:37:38.489Z,676.37
2017-11-16T22:40:07.692Z,671.17
2017-11-16T22:42:36.965Z,658.95
2017-11-16T22:45:06.398Z,638.65
2017-11-16T22:47:35.681Z,655.13
2017-11-16T22:50:05.055Z,672.25
2017-11-16T22:52:34.533Z,652.33
2017-11-16T22:55:03.692Z,670.15
2017-11-16T22:57:35.265Z,793.65
2017-11-16T23:00:04.569Z,744.62
2017-11-16T23:04:35.471Z,733.00
2017-11-16T23:07:04.616Z,850.42
2017-11-16T23:09:34.181Z,874.32
2017-11-16T23:12:03.559Z,821.52
2017-11-16T23:14:32.714Z,825.95
2017-11-16T23:17:03.072Z,797.27
2017-11-16T23:19:32.586Z,793.58
2017-11-16T23:22:02.315Z,781.15
2017-11-16T23:24:31.493Z,776.35
2017-11-16T23:27:00.970Z,739.50
2017-11-16T23:29:30.337Z,733.38
2017-11-16T23:32:00.242Z,731.55
2017-11-16T23:34:29.494Z,739.87
2017-11-16T23:36:58.737Z,747.20
2017-11-16T23:39:28.283Z,727.47
2017-11-16T23:41:57.477Z,730.22
2017-11-16T23:44:26.655Z,773.40
2017-11-16T23:46:55.965Z,789.73
2017-11-16T23:49:25.333Z,806.55
2017-11-16T23:51:54.683Z,800.15
2017-11-16T23:54:23.963Z,773.33
2017-11-16T23:56:53.345Z,780.55
2017-11-16T23:59:22.520Z,764.97
